createdAt,value
2022-12-08T00:01:12.644Z,72.26
2022-12-08T00:03:39.435Z,71.87
2022-12-08T00:06:25.926Z,72.17
2022-12-08T00:09:10.832Z,72.35
2022-12-08T00:11:37.369Z,71.82
2022-12-08T00:14:03.735Z,72.14
2022-12-08T00:16:30.109Z,72.05
2022-12-08T00:18:56.493Z,71.55
2022-12-08T00:21:22.818Z,71.91
2022-12-08T00:23:55.070Z,71.97
2022-12-08T00:26:21.901Z,71.91
2022-12-08T00:28:48.464Z,71.82
2022-12-08T00:31:17.644Z,72.10
2022-12-08T00:33:44.032Z,71.73
2022-12-08T00:36:13.231Z,71.92
2022-12-08T00:38:40.009Z,71.68
2022-12-08T00:41:14.926Z,71.71
2022-12-08T00:43:42.126Z,72.03
2022-12-08T00:46:08.600Z,71.41
2022-12-08T00:48:35.254Z,71.13
2022-12-08T00:51:01.830Z,71.34
2022-12-08T00:53:28.186Z,70.84
2022-12-08T00:55:54.533Z,71.07
2022-12-08T00:58:20.842Z,71.24
2022-12-08T01:00:47.258Z,71.46
2022-12-08T01:03:13.690Z,71.62
2022-12-08T01:05:40.046Z,71.60
2022-12-08T01:08:07.909Z,71.76
2022-12-08T01:10:39.424Z,71.63
2022-12-08T01:13:06.154Z,71.67
2022-12-08T01:15:32.463Z,71.53
2022-12-08T01:17:59.014Z,71.17
2022-12-08T01:20:25.389Z,71.34
2022-12-08T01:22:51.943Z,70.70
2022-12-08T01:25:18.445Z,71.02
2022-12-08T01:27:44.978Z,71.26
2022-12-08T01:30:13.145Z,71.22
2022-12-08T01:32:39.500Z,70.92
2022-12-08T01:35:05.922Z,70.91
2022-12-08T01:37:32.227Z,70.67
2022-12-08T01:39:58.748Z,70.86
2022-12-08T01:42:27.814Z,70.61
2022-12-08T01:45:06.805Z,71.44
2022-12-08T01:47:46.165Z,70.56
2022-12-08T01:50:15.912Z,70.92
2022-12-08T01:53:04.331Z,71.13
2022-12-08T01:55:49.204Z,71.33
2022-12-08T01:58:26.617Z,71.19
2022-12-08T02:00:53.115Z,71.31
2022-12-08T02:03:28.060Z,71.16
2022-12-08T02:05:54.721Z,70.93
2022-12-08T02:08:22.754Z,70.86
2022-12-08T02:10:52.234Z,71.56
2022-12-08T02:13:21.411Z,71.23
2022-12-08T02:16:01.540Z,71.83
2022-12-08T02:19:08.025Z,71.18
2022-12-08T02:21:55.722Z,71.50
2022-12-08T02:24:38.877Z,70.83
2022-12-08T02:27:25.889Z,71.16
2022-12-08T02:30:23.781Z,70.69
2022-12-08T02:33:05.318Z,70.52
2022-12-08T02:35:43.995Z,71.24
2022-12-08T02:38:19.437Z,71.06
2022-12-08T02:41:01.047Z,70.94
2022-12-08T02:43:50.595Z,70.62
2022-12-08T02:46:31.107Z,70.70
2022-12-08T02:48:58.984Z,71.00
2022-12-08T02:51:25.553Z,71.01
2022-12-08T02:53:52.513Z,70.87
2022-12-08T02:56:43.087Z,70.83
2022-12-08T02:59:28.504Z,69.97
2022-12-08T03:02:07.130Z,70.46
2022-12-08T03:04:44.654Z,70.08
2022-12-08T03:07:21.967Z,70.19
2022-12-08T03:09:56.415Z,70.11
2022-12-08T03:12:34.950Z,70.64
2022-12-08T03:15:09.366Z,70.93
2022-12-08T03:17:38.369Z,71.36
2022-12-08T03:20:09.624Z,70.46
2022-12-08T03:22:38.530Z,70.73
2022-12-08T03:25:05.798Z,70.71
2022-12-08T03:27:32.645Z,70.56
2022-12-08T03:30:00.729Z,71.43
2022-12-08T03:32:39.214Z,73.02
2022-12-08T03:35:09.394Z,72.55
2022-12-08T03:37:37.830Z,72.28
2022-12-08T03:40:06.679Z,72.47
2022-12-08T03:42:33.239Z,72.29
2022-12-08T03:44:59.700Z,71.38
2022-12-08T03:47:26.358Z,71.62
2022-12-08T03:49:52.663Z,71.40
2022-12-08T03:52:18.986Z,71.48
2022-12-08T03:54:45.325Z,71.48
2022-12-08T03:57:11.720Z,71.35
2022-12-08T03:59:38.059Z,70.98
2022-12-08T04:02:04.399Z,71.21
2022-12-08T04:04:31.098Z,70.99
2022-12-08T04:06:57.450Z,71.38
2022-12-08T04:09:23.813Z,71.20
2022-12-08T04:11:50.162Z,71.43
2022-12-08T04:14:16.587Z,70.78
2022-12-08T04:16:42.936Z,71.14
2022-12-08T04:19:09.317Z,70.58
2022-12-08T04:21:35.637Z,70.46
2022-12-08T04:24:02.436Z,70.94
2022-12-08T04:26:29.008Z,70.77
2022-12-08T04:28:55.338Z,70.45
2022-12-08T04:31:21.752Z,70.39
2022-12-08T04:33:48.594Z,70.03
2022-12-08T04:36:15.163Z,70.19
2022-12-08T04:38:41.486Z,70.52
2022-12-08T04:41:07.912Z,70.72
2022-12-08T04:43:35.366Z,70.98
2022-12-08T04:46:01.701Z,70.78
2022-12-08T04:48:28.114Z,70.97
2022-12-08T04:50:54.465Z,71.09
2022-12-08T04:53:21.239Z,70.53
2022-12-08T04:55:49.512Z,70.46
2022-12-08T04:58:19.017Z,70.79
2022-12-08T05:00:46.835Z,70.70
2022-12-08T05:03:14.520Z,70.27
2022-12-08T05:05:41.959Z,70.42
2022-12-08T05:08:09.626Z,69.81
2022-12-08T05:10:36.366Z,69.77
2022-12-08T05:13:02.790Z,70.21
2022-12-08T05:15:29.150Z,69.69
2022-12-08T05:17:55.503Z,70.16
2022-12-08T05:20:21.986Z,70.47
2022-12-08T05:22:48.349Z,70.18
2022-12-08T05:25:14.967Z,70.54
2022-12-08T05:27:41.937Z,70.25
2022-12-08T05:30:08.431Z,70.33
2022-12-08T05:32:34.808Z,70.24
2022-12-08T05:35:01.140Z,70.60
2022-12-08T05:37:27.472Z,70.29
2022-12-08T05:39:53.781Z,71.06
2022-12-08T05:42:24.618Z,70.73
2022-12-08T05:44:51.462Z,70.94
2022-12-08T05:47:17.805Z,70.98
2022-12-08T05:49:44.837Z,70.83
2022-12-08T05:52:11.197Z,71.24
2022-12-08T05:54:38.032Z,71.30
2022-12-08T05:57:04.445Z,71.35
2022-12-08T05:59:30.753Z,71.30
2022-12-08T06:01:57.150Z,70.88
2022-12-08T06:04:23.515Z,71.09
2022-12-08T06:06:49.831Z,71.69
2022-12-08T06:09:16.345Z,72.19
2022-12-08T06:11:42.845Z,72.00
2022-12-08T06:14:14.441Z,72.44
2022-12-08T06:16:40.974Z,72.45
2022-12-08T06:19:07.463Z,72.00
2022-12-08T06:21:34.061Z,72.23
2022-12-08T06:24:00.396Z,71.58
2022-12-08T06:26:26.817Z,71.87
2022-12-08T06:28:53.164Z,71.88
2022-12-08T06:31:25.690Z,71.51
2022-12-08T06:33:53.550Z,71.45
2022-12-08T06:36:23.194Z,71.12
2022-12-08T06:38:49.641Z,71.21
2022-12-08T06:41:16.552Z,71.06
2022-12-08T06:43:43.214Z,71.61
2022-12-08T06:46:13.138Z,71.56
2022-12-08T06:48:39.749Z,71.42
2022-12-08T06:51:08.087Z,70.93
2022-12-08T06:53:34.613Z,71.11
2022-12-08T06:56:01.134Z,71.51
2022-12-08T06:58:27.466Z,71.27
2022-12-08T07:00:53.989Z,71.21
2022-12-08T07:03:20.520Z,70.97
2022-12-08T07:05:47.073Z,70.97
2022-12-08T07:08:13.538Z,71.10
2022-12-08T07:10:39.958Z,73.09
2022-12-08T07:13:06.290Z,72.13
2022-12-08T07:15:32.615Z,71.96
2022-12-08T07:18:00.391Z,71.56
2022-12-08T07:20:27.137Z,71.47
2022-12-08T07:22:54.005Z,71.65
2022-12-08T07:25:20.459Z,71.76
2022-12-08T07:27:47.122Z,71.55
2022-12-08T07:30:14.142Z,71.49
2022-12-08T07:32:40.495Z,71.82
2022-12-08T07:35:08.231Z,72.00
2022-12-08T07:37:35.594Z,71.64
2022-12-08T07:40:02.336Z,71.85
2022-12-08T07:42:29.029Z,71.64
2022-12-08T07:44:55.564Z,71.43
2022-12-08T07:47:22.133Z,71.44
2022-12-08T07:49:48.445Z,71.23
2022-12-08T07:52:14.839Z,71.76
2022-12-08T07:54:41.154Z,71.59
2022-12-08T07:57:08.992Z,72.15
2022-12-08T07:59:35.620Z,71.85
2022-12-08T08:02:22.852Z,71.92
2022-12-08T08:04:51.573Z,71.78
2022-12-08T08:07:18.037Z,71.69
2022-12-08T08:09:45.532Z,71.84
2022-12-08T08:12:30.175Z,71.68
2022-12-08T08:14:57.386Z,71.21
2022-12-08T08:17:24.205Z,71.14
2022-12-08T08:19:50.632Z,70.91
2022-12-08T08:22:16.965Z,70.90
2022-12-08T08:24:45.165Z,70.97
2022-12-08T08:27:12.498Z,71.20
2022-12-08T08:29:38.862Z,71.03
2022-12-08T08:32:05.637Z,71.03
2022-12-08T08:34:34.293Z,70.93
2022-12-08T08:37:00.692Z,70.76
2022-12-08T08:39:27.142Z,70.43
2022-12-08T08:41:53.501Z,71.02
2022-12-08T08:44:19.841Z,70.88
2022-12-08T08:46:46.188Z,70.69
2022-12-08T08:49:13.073Z,70.86
2022-12-08T08:51:39.462Z,70.76
2022-12-08T08:54:05.843Z,70.93
2022-12-08T08:56:32.552Z,71.38
2022-12-08T08:58:59.010Z,71.02
2022-12-08T09:01:27.656Z,71.30
2022-12-08T09:03:55.420Z,71.13
2022-12-08T09:06:22.640Z,71.22
2022-12-08T09:08:50.057Z,70.80
2022-12-08T09:11:18.474Z,71.19
2022-12-08T09:13:48.380Z,71.27
2022-12-08T09:16:15.182Z,71.12
2022-12-08T09:18:41.905Z,71.35
2022-12-08T09:21:13.053Z,70.70
2022-12-08T09:23:39.421Z,70.55
2022-12-08T09:26:05.783Z,71.17
2022-12-08T09:28:32.779Z,70.45
2022-12-08T09:30:59.244Z,70.64
2022-12-08T09:33:25.658Z,70.99
2022-12-08T09:35:52.013Z,70.75
2022-12-08T09:38:18.558Z,70.93
2022-12-08T09:40:50.093Z,70.43
2022-12-08T09:43:40.896Z,70.69
2022-12-08T09:46:10.425Z,70.40
2022-12-08T09:48:44.511Z,70.47
2022-12-08T09:51:13.339Z,70.48
2022-12-08T09:53:48.251Z,70.00
2022-12-08T09:56:33.564Z,70.71
2022-12-08T09:59:03.858Z,70.59
2022-12-08T10:01:33.314Z,69.80
2022-12-08T10:04:01.008Z,70.88
2022-12-08T10:06:30.395Z,71.06
2022-12-08T10:09:38.052Z,70.23
2022-12-08T10:12:29.445Z,70.15
2022-12-08T10:15:17.915Z,69.80
2022-12-08T10:17:50.955Z,69.02
2022-12-08T10:20:26.155Z,69.08
2022-12-08T10:23:08.231Z,68.75
2022-12-08T10:26:00.881Z,69.35
2022-12-08T10:28:27.435Z,69.03
2022-12-08T10:30:53.903Z,69.02
2022-12-08T10:33:21.938Z,68.65
2022-12-08T10:35:58.342Z,68.49
2022-12-08T10:38:36.233Z,67.67
2022-12-08T10:41:11.694Z,67.74
2022-12-08T10:43:42.938Z,67.94
2022-12-08T10:46:19.587Z,67.12
2022-12-08T10:48:55.657Z,66.55
2022-12-08T10:51:25.204Z,66.86
2022-12-08T10:53:51.710Z,67.43
2022-12-08T10:56:18.109Z,67.10
2022-12-08T10:58:47.336Z,66.14
2022-12-08T11:01:26.328Z,66.80
2022-12-08T11:03:58.084Z,66.73
2022-12-08T11:06:30.400Z,66.33
2022-12-08T11:09:03.165Z,65.91
2022-12-08T11:11:50.222Z,65.53
2022-12-08T11:14:19.722Z,65.13
2022-12-08T11:16:46.328Z,65.07
2022-12-08T11:19:18.582Z,63.97
2022-12-08T11:21:46.089Z,63.69
2022-12-08T11:24:15.402Z,62.94
2022-12-08T11:26:50.074Z,61.77
2022-12-08T11:29:17.332Z,61.15
2022-12-08T11:31:49.861Z,59.99
2022-12-08T11:34:30.062Z,59.36
2022-12-08T11:36:57.367Z,57.73
2022-12-08T11:39:27.005Z,58.37
2022-12-08T11:41:56.420Z,58.21
2022-12-08T11:44:46.968Z,57.95
2022-12-08T11:47:25.362Z,57.52
2022-12-08T11:50:18.326Z,55.91
2022-12-08T11:52:49.884Z,56.43
2022-12-08T11:55:42.692Z,56.77
2022-12-08T11:58:38.759Z,57.94
2022-12-08T12:01:05.565Z,58.30
2022-12-08T12:03:43.693Z,58.32
2022-12-08T12:06:56.863Z,59.13
2022-12-08T12:09:29.218Z,58.17
2022-12-08T12:12:19.052Z,57.46
2022-12-08T12:15:10.061Z,57.14
2022-12-08T12:17:47.690Z,57.34
2022-12-08T12:20:20.964Z,56.95
2022-12-08T12:22:54.170Z,56.40
2022-12-08T12:25:23.704Z,56.46
2022-12-08T12:27:57.113Z,56.22
2022-12-08T12:30:26.499Z,56.12
2022-12-08T12:32:56.986Z,56.52
2022-12-08T12:35:28.956Z,56.34
2022-12-08T12:38:01.407Z,56.10
2022-12-08T12:40:34.017Z,56.54
2022-12-08T12:43:00.259Z,56.72
2022-12-08T12:45:31.924Z,56.15
2022-12-08T12:48:01.200Z,56.25
2022-12-08T12:50:33.880Z,55.99
2022-12-08T12:53:09.171Z,55.95
2022-12-08T12:55:53.865Z,55.67
2022-12-08T12:58:27.904Z,55.78
2022-12-08T13:01:19.948Z,55.60
2022-12-08T13:04:12.625Z,55.56
2022-12-08T13:06:46.766Z,55.77
2022-12-08T13:09:24.217Z,55.47
2022-12-08T13:11:54.763Z,54.20
2022-12-08T13:14:28.114Z,52.95
2022-12-08T13:16:57.483Z,52.35
2022-12-08T13:19:25.116Z,52.63
2022-12-08T13:21:51.464Z,52.77
2022-12-08T13:24:24.059Z,52.79
2022-12-08T13:27:10.994Z,52.70
2022-12-08T13:29:40.416Z,52.86
2022-12-08T13:32:09.678Z,52.88
2022-12-08T13:34:41.952Z,52.38
2022-12-08T13:37:11.327Z,52.74
2022-12-08T13:39:40.711Z,52.80
2022-12-08T13:42:19.102Z,51.92
2022-12-08T13:48:13.766Z,51.10
2022-12-08T13:53:00.054Z,50.85
2022-12-08T13:59:31.447Z,51.53
2022-12-08T14:02:04.310Z,51.64
2022-12-08T14:04:54.329Z,52.00
2022-12-08T14:07:18.457Z,51.94
2022-12-08T14:09:46.158Z,52.63
2022-12-08T14:12:20.517Z,52.31
2022-12-08T14:15:06.027Z,52.36
2022-12-08T14:17:33.479Z,51.53
2022-12-08T14:20:01.864Z,51.84
2022-12-08T14:22:37.348Z,51.91
2022-12-08T14:25:06.513Z,51.43
2022-12-08T14:27:37.171Z,51.41
2022-12-08T14:30:26.633Z,51.75
2022-12-08T14:32:58.766Z,51.95
2022-12-08T14:35:26.656Z,52.29
2022-12-08T14:37:57.166Z,52.56
2022-12-08T14:40:29.175Z,52.69
2022-12-08T14:43:07.546Z,53.33
2022-12-08T14:45:40.085Z,53.47
2022-12-08T14:48:31.418Z,53.12
2022-12-08T14:51:03.767Z,52.95
2022-12-08T14:53:56.284Z,53.03
2022-12-08T14:56:26.821Z,53.21
2022-12-08T14:59:07.941Z,52.73
2022-12-08T15:01:38.673Z,52.74
2022-12-08T15:04:17.692Z,52.68
2022-12-08T15:06:53.512Z,53.25
2022-12-08T15:09:34.165Z,52.97
2022-12-08T15:12:12.560Z,52.65
2022-12-08T15:14:53.811Z,52.78
2022-12-08T15:17:48.879Z,52.58
2022-12-08T15:20:35.852Z,52.32
2022-12-08T15:23:02.943Z,52.22
2022-12-08T15:25:32.468Z,52.68
2022-12-08T15:28:02.429Z,52.03
2022-12-08T15:30:29.638Z,51.95
2022-12-08T15:32:56.175Z,52.17
2022-12-08T15:35:22.687Z,52.48
2022-12-08T15:37:49.083Z,52.12
2022-12-08T15:40:18.813Z,52.21
2022-12-08T15:42:45.271Z,52.67
2022-12-08T15:45:15.941Z,52.49
2022-12-08T15:47:44.240Z,53.12
2022-12-08T15:50:17.074Z,53.44
2022-12-08T15:52:43.768Z,53.97
2022-12-08T15:55:18.434Z,53.94
2022-12-08T16:00:53.926Z,53.75
2022-12-08T16:09:32.996Z,54.75
2022-12-08T16:12:18.326Z,54.99
2022-12-08T16:17:32.065Z,55.60
2022-12-08T16:19:59.077Z,55.86
2022-12-08T16:25:20.210Z,55.32
2022-12-08T16:30:36.553Z,56.58
2022-12-08T16:33:02.877Z,56.28
2022-12-08T16:35:30.542Z,56.49
2022-12-08T16:37:57.434Z,56.14
2022-12-08T16:40:23.848Z,56.53
2022-12-08T16:42:50.528Z,55.69
2022-12-08T16:45:20.229Z,55.54
2022-12-08T16:47:49.050Z,56.34
2022-12-08T16:50:46.197Z,56.25
2022-12-08T16:53:13.038Z,56.22
2022-12-08T16:55:40.032Z,56.03
2022-12-08T16:58:06.796Z,56.20
2022-12-08T17:00:37.379Z,56.73
2022-12-08T17:03:10.779Z,57.04
2022-12-08T17:05:39.581Z,57.50
2022-12-08T17:08:05.944Z,57.44
2022-12-08T17:10:34.435Z,57.46
2022-12-08T17:13:02.145Z,57.30
2022-12-08T17:15:28.845Z,57.48
2022-12-08T17:17:55.229Z,57.49
2022-12-08T17:20:26.437Z,57.64
2022-12-08T17:22:58.937Z,57.79
2022-12-08T17:25:26.640Z,58.02
2022-12-08T17:27:53.130Z,57.69
2022-12-08T17:30:19.641Z,58.30
2022-12-08T17:32:45.986Z,58.21
2022-12-08T17:35:13.225Z,57.99
2022-12-08T17:37:39.570Z,58.72
2022-12-08T17:40:06.912Z,58.19
2022-12-08T17:42:33.540Z,58.54
2022-12-08T17:44:59.858Z,58.57
2022-12-08T17:47:26.185Z,58.86
2022-12-08T17:49:52.585Z,59.06
2022-12-08T17:52:18.963Z,59.14
2022-12-08T17:54:45.357Z,59.05
2022-12-08T17:57:11.695Z,59.43
2022-12-08T17:59:38.154Z,59.89
2022-12-08T18:02:04.652Z,59.60
2022-12-08T18:04:31.259Z,59.61
2022-12-08T18:07:00.107Z,58.81
2022-12-08T18:09:26.516Z,59.64
2022-12-08T18:11:52.943Z,59.92
2022-12-08T18:14:19.308Z,59.80
2022-12-08T18:16:46.903Z,60.00
2022-12-08T18:19:14.545Z,59.62
2022-12-08T18:21:41.546Z,59.84
2022-12-08T18:24:15.118Z,60.21
2022-12-08T18:26:41.690Z,60.36
2022-12-08T18:29:08.054Z,60.08
2022-12-08T18:31:34.387Z,59.85
2022-12-08T18:34:00.737Z,60.27
2022-12-08T18:36:27.076Z,59.98
2022-12-08T18:38:55.595Z,61.30
2022-12-08T18:41:25.566Z,60.81
2022-12-08T18:43:53.677Z,61.72
2022-12-08T18:46:20.291Z,61.31
2022-12-08T18:48:49.247Z,61.66
2022-12-08T18:51:21.235Z,61.82
2022-12-08T18:53:48.576Z,61.43
2022-12-08T18:56:34.495Z,62.17
2022-12-08T18:59:05.431Z,62.49
2022-12-08T19:01:33.953Z,63.39
2022-12-08T19:06:49.847Z,64.11
2022-12-08T19:09:17.331Z,63.68
2022-12-08T19:11:44.194Z,64.06
2022-12-08T19:14:10.977Z,64.75
2022-12-08T19:16:38.064Z,64.59
2022-12-08T19:19:05.013Z,64.76
2022-12-08T19:21:32.455Z,64.66
2022-12-08T19:23:59.855Z,64.51
2022-12-08T19:26:27.999Z,64.63
2022-12-08T19:28:54.687Z,64.48
2022-12-08T19:31:21.583Z,64.55
2022-12-08T19:33:47.987Z,63.83
2022-12-08T19:36:17.739Z,63.60
2022-12-08T19:39:02.786Z,63.59
2022-12-08T19:41:48.203Z,63.43
2022-12-08T19:44:52.862Z,64.09
2022-12-08T19:47:24.662Z,65.12
2022-12-08T19:49:52.087Z,65.17
2022-12-08T19:52:18.841Z,65.42
2022-12-08T19:54:45.231Z,64.78
2022-12-08T19:57:11.639Z,64.57
2022-12-08T19:59:39.276Z,63.90
2022-12-08T20:02:07.000Z,64.41
2022-12-08T20:04:33.406Z,64.30
2022-12-08T20:07:00.061Z,63.98
2022-12-08T20:09:26.499Z,63.71
2022-12-08T20:11:54.610Z,64.49
2022-12-08T20:14:22.940Z,64.71
2022-12-08T20:16:50.439Z,64.44
2022-12-08T20:19:17.581Z,64.48
2022-12-08T20:21:43.950Z,64.43
2022-12-08T20:24:10.418Z,64.55
2022-12-08T20:26:36.839Z,64.24
2022-12-08T20:29:03.283Z,64.77
2022-12-08T20:31:31.427Z,64.68
2022-12-08T20:33:57.842Z,64.54
2022-12-08T20:36:25.289Z,64.67
2022-12-08T20:38:53.087Z,64.66
2022-12-08T20:41:20.246Z,65.07
2022-12-08T20:43:47.864Z,65.03
2022-12-08T20:46:16.590Z,64.84
2022-12-08T20:48:44.164Z,64.67
2022-12-08T20:51:18.545Z,64.66
2022-12-08T20:53:45.670Z,64.73
2022-12-08T20:56:20.678Z,64.82
2022-12-08T20:58:47.730Z,65.13
2022-12-08T21:01:17.664Z,65.51
2022-12-08T21:03:45.216Z,65.26
2022-12-08T21:06:12.774Z,65.84
2022-12-08T21:08:40.427Z,65.85
2022-12-08T21:11:07.962Z,65.42
2022-12-08T21:13:34.635Z,66.00
2022-12-08T21:16:01.131Z,65.55
2022-12-08T21:18:27.682Z,65.01
2022-12-08T21:21:05.839Z,65.69
2022-12-08T21:23:33.681Z,64.68
2022-12-08T21:26:00.107Z,64.77
2022-12-08T21:28:44.738Z,64.86
2022-12-08T21:31:16.502Z,65.36
2022-12-08T21:33:50.788Z,65.09
2022-12-08T21:36:51.057Z,64.36
2022-12-08T21:39:17.622Z,64.79
2022-12-08T21:42:12.074Z,64.80
2022-12-08T21:44:38.981Z,64.61
2022-12-08T21:47:05.659Z,64.59
2022-12-08T21:49:40.101Z,64.47
2022-12-08T21:52:09.165Z,64.71
2022-12-08T21:54:35.925Z,64.43
2022-12-08T21:57:02.379Z,64.52
2022-12-08T21:59:28.789Z,64.56
2022-12-08T22:01:55.309Z,64.31
2022-12-08T22:04:22.431Z,64.25
2022-12-08T22:06:49.392Z,64.34
2022-12-08T22:09:15.981Z,64.96
2022-12-08T22:11:43.667Z,64.50
2022-12-08T22:14:14.400Z,64.16
2022-12-08T22:16:42.155Z,63.84
2022-12-08T22:19:08.758Z,63.90
2022-12-08T22:21:35.305Z,63.57
2022-12-08T22:24:01.805Z,63.61
2022-12-08T22:26:28.249Z,63.14
2022-12-08T22:28:54.674Z,62.60
2022-12-08T22:31:21.905Z,63.02
2022-12-08T22:33:49.488Z,63.33
2022-12-08T22:36:24.623Z,62.99
2022-12-08T22:38:52.077Z,63.16
2022-12-08T22:41:19.339Z,63.60
2022-12-08T22:43:46.838Z,63.35
2022-12-08T22:46:16.705Z,62.87
2022-12-08T22:48:43.787Z,63.61
2022-12-08T22:51:10.252Z,63.48
2022-12-08T22:53:37.139Z,63.49
2022-12-08T22:56:08.294Z,63.85
2022-12-08T22:58:35.339Z,63.62
2022-12-08T23:01:02.120Z,63.24
2022-12-08T23:03:28.758Z,63.66
2022-12-08T23:05:55.427Z,63.56
2022-12-08T23:08:25.173Z,62.98
2022-12-08T23:10:53.847Z,62.82
2022-12-08T23:13:21.220Z,62.60
2022-12-08T23:15:48.141Z,62.97
2022-12-08T23:18:18.765Z,62.59
2022-12-08T23:20:46.495Z,62.77
2022-12-08T23:23:13.851Z,62.30
2022-12-08T23:25:41.523Z,62.66
2022-12-08T23:28:08.379Z,61.95
2022-12-08T23:30:35.411Z,62.07
2022-12-08T23:33:02.262Z,62.08
2022-12-08T23:35:28.682Z,61.76
2022-12-08T23:37:55.037Z,61.85
2022-12-08T23:40:21.494Z,61.97
2022-12-08T23:42:48.433Z,61.62
2022-12-08T23:45:14.961Z,61.63
2022-12-08T23:47:41.448Z,61.09
2022-12-08T23:50:08.714Z,61.16
2022-12-08T23:52:35.369Z,61.13
2022-12-08T23:55:01.803Z,60.96
2022-12-08T23:57:28.627Z,61.31
2022-12-08T23:59:54.993Z,60.82
